createdAt,value
2019-05-07T00:00:59.692Z,5.25
2019-05-07T00:01:59.652Z,5.25
2019-05-07T00:02:59.656Z,5.23
2019-05-07T00:04:01.892Z,5.21
2019-05-07T00:04:59.676Z,5.23
2019-05-07T00:05:59.610Z,5.21
2019-05-07T00:06:59.600Z,5.18
2019-05-07T00:07:59.603Z,5.20
2019-05-07T00:08:59.582Z,5.18
2019-05-07T00:09:59.602Z,5.17
2019-05-07T00:10:59.560Z,5.15
2019-05-07T00:11:59.548Z,5.14
2019-05-07T00:12:59.530Z,5.14
2019-05-07T00:13:59.529Z,5.12
2019-05-07T00:15:02.303Z,5.14
2019-05-07T00:16:02.498Z,5.15
2019-05-07T00:16:59.512Z,5.15
2019-05-07T00:17:59.494Z,5.15
2019-05-07T00:18:59.468Z,5.15
2019-05-07T00:19:59.459Z,5.15
2019-05-07T00:20:59.490Z,5.17
2019-05-07T00:21:59.444Z,5.18
2019-05-07T00:22:59.444Z,5.20
2019-05-07T00:23:59.418Z,5.21
2019-05-07T00:24:59.426Z,5.20
2019-05-07T00:25:59.402Z,5.18
2019-05-07T00:26:59.416Z,5.17
2019-05-07T00:27:59.378Z,5.15
2019-05-07T00:28:59.372Z,5.15
2019-05-07T00:29:59.354Z,5.10
2019-05-07T00:30:59.353Z,5.10
2019-05-07T00:31:59.346Z,5.08
2019-05-07T00:32:59.332Z,5.07
2019-05-07T00:33:59.332Z,5.02
2019-05-07T00:34:59.310Z,4.97
2019-05-07T00:35:59.294Z,4.99
2019-05-07T00:36:59.292Z,4.96
2019-05-07T00:37:59.308Z,4.93
2019-05-07T00:38:59.249Z,4.90
2019-05-07T00:39:59.242Z,4.86
2019-05-07T00:40:59.244Z,4.87
2019-05-07T00:41:59.222Z,4.86
2019-05-07T00:42:59.240Z,4.84
2019-05-07T00:43:59.206Z,4.82
2019-05-07T00:45:13.157Z,4.78
2019-05-07T00:46:02.150Z,4.77
2019-05-07T00:46:59.179Z,4.75
2019-05-07T00:47:59.178Z,4.73
2019-05-07T00:48:59.141Z,4.73
2019-05-07T00:49:59.136Z,4.68
2019-05-07T00:50:59.126Z,4.66
2019-05-07T00:51:59.120Z,4.60
2019-05-07T00:52:59.122Z,4.59
2019-05-07T00:53:59.105Z,4.58
2019-05-07T00:54:59.076Z,4.56
2019-05-07T00:55:59.074Z,4.53
2019-05-07T00:56:59.066Z,4.52
2019-05-07T00:57:59.110Z,4.49
2019-05-07T00:58:59.056Z,4.44
2019-05-07T00:59:59.026Z,4.41
2019-05-07T01:00:59.017Z,4.40
2019-05-07T01:01:59.013Z,4.40
2019-05-07T01:02:58.998Z,4.38
2019-05-07T01:03:59.010Z,4.38
2019-05-07T01:04:58.998Z,4.38
2019-05-07T01:05:58.970Z,4.37
2019-05-07T01:06:58.963Z,4.34
2019-05-07T01:07:58.950Z,4.31
2019-05-07T01:08:58.968Z,4.30
2019-05-07T01:09:58.932Z,4.24
2019-05-07T01:10:58.915Z,4.23
2019-05-07T01:11:58.912Z,4.20
2019-05-07T01:12:59.379Z,4.16
2019-05-07T01:13:58.894Z,4.13
2019-05-07T01:14:58.900Z,4.12
2019-05-07T01:15:58.880Z,4.05
2019-05-07T01:16:58.858Z,4.02
2019-05-07T01:17:58.844Z,4.04
2019-05-07T01:18:58.847Z,4.01
2019-05-07T01:19:58.831Z,4.01
2019-05-07T01:20:58.835Z,3.98
2019-05-07T01:21:58.812Z,3.96
2019-05-07T01:22:58.796Z,3.96
2019-05-07T01:23:58.783Z,3.96
2019-05-07T01:24:58.764Z,3.96
2019-05-07T01:25:58.757Z,3.95
2019-05-07T01:26:58.773Z,3.92
2019-05-07T01:27:58.745Z,3.88
2019-05-07T01:28:58.725Z,3.83
2019-05-07T01:29:58.715Z,3.81
2019-05-07T01:30:58.716Z,3.78
2019-05-07T01:31:58.701Z,3.74
2019-05-07T01:32:58.711Z,3.70
2019-05-07T01:33:58.689Z,3.74
2019-05-07T01:34:58.663Z,3.76
2019-05-07T01:35:58.659Z,3.74
2019-05-07T01:36:58.653Z,3.73
2019-05-07T01:37:58.631Z,3.69
2019-05-07T01:38:58.649Z,3.66
2019-05-07T01:39:58.628Z,3.58
2019-05-07T01:40:58.600Z,3.59
2019-05-07T01:41:58.605Z,3.59
2019-05-07T01:42:58.585Z,3.58
2019-05-07T01:43:58.576Z,3.56
2019-05-07T01:44:58.587Z,3.51
2019-05-07T01:45:58.561Z,3.51
2019-05-07T01:46:58.535Z,3.50
2019-05-07T01:47:58.550Z,3.45
2019-05-07T01:48:58.525Z,3.42
2019-05-07T01:49:58.531Z,3.40
2019-05-07T01:50:58.543Z,3.41
2019-05-07T01:51:58.499Z,3.36
2019-05-07T01:52:58.469Z,3.32
2019-05-07T01:53:58.471Z,3.34
2019-05-07T01:54:58.465Z,3.36
2019-05-07T01:55:58.445Z,3.36
2019-05-07T01:56:58.475Z,3.34
2019-05-07T01:57:58.446Z,3.29
2019-05-07T01:58:58.422Z,3.29
2019-05-07T01:59:58.401Z,3.25
2019-05-07T02:00:58.381Z,3.23
2019-05-07T02:01:58.407Z,3.28
2019-05-07T02:02:58.393Z,3.34
2019-05-07T02:03:58.361Z,3.36
2019-05-07T02:04:58.351Z,3.31
2019-05-07T02:05:58.343Z,3.34
2019-05-07T02:06:58.321Z,3.36
2019-05-07T02:07:58.346Z,3.34
2019-05-07T02:08:58.307Z,3.31
2019-05-07T02:09:58.321Z,3.28
2019-05-07T02:10:58.287Z,3.25
2019-05-07T02:11:58.267Z,3.22
2019-05-07T02:12:58.283Z,3.18
2019-05-07T02:13:58.257Z,3.18
2019-05-07T02:14:58.247Z,3.16
2019-05-07T02:16:01.126Z,3.16
2019-05-07T02:16:59.215Z,3.08
2019-05-07T02:17:58.245Z,3.07
2019-05-07T02:18:58.195Z,3.01
2019-05-07T02:19:58.192Z,2.98
2019-05-07T02:20:58.173Z,2.95
2019-05-07T02:21:58.179Z,2.93
2019-05-07T02:22:58.163Z,2.93
2019-05-07T02:23:58.175Z,2.93
2019-05-07T02:24:58.133Z,2.90
2019-05-07T02:25:58.179Z,2.90
2019-05-07T02:26:58.119Z,2.82
2019-05-07T02:27:58.118Z,2.83
2019-05-07T02:28:58.139Z,2.86
2019-05-07T02:29:58.101Z,2.86
2019-05-07T02:30:58.080Z,2.85
2019-05-07T02:31:58.068Z,2.86
2019-05-07T02:32:58.052Z,2.83
2019-05-07T02:33:58.057Z,2.80
2019-05-07T02:34:58.049Z,2.80
2019-05-07T02:35:58.035Z,2.80
2019-05-07T02:36:58.012Z,2.83
2019-05-07T02:37:58.019Z,2.80
2019-05-07T02:38:58.010Z,2.77
2019-05-07T02:39:58.028Z,2.74
2019-05-07T02:40:57.979Z,2.71
2019-05-07T02:41:57.962Z,2.67
2019-05-07T02:42:57.958Z,2.61
2019-05-07T02:44:00.269Z,2.57
2019-05-07T02:44:58.950Z,2.61
2019-05-07T02:46:15.985Z,2.56
2019-05-07T02:46:58.905Z,2.56
2019-05-07T02:47:57.909Z,2.60
2019-05-07T02:48:57.890Z,2.62
2019-05-07T02:49:57.883Z,2.75
2019-05-07T02:50:57.902Z,2.82
2019-05-07T02:51:57.851Z,2.83
2019-05-07T02:52:57.843Z,2.82
2019-05-07T02:53:57.839Z,2.80
2019-05-07T02:54:57.829Z,2.82
2019-05-07T02:55:57.818Z,2.74
2019-05-07T02:56:57.835Z,2.72
2019-05-07T02:57:57.800Z,2.68
2019-05-07T02:58:57.779Z,2.68
2019-05-07T02:59:57.769Z,2.68
2019-05-07T03:00:57.749Z,2.62
2019-05-07T03:01:57.757Z,2.57
2019-05-07T03:02:57.754Z,2.60
2019-05-07T03:03:57.729Z,2.60
2019-05-07T03:04:57.713Z,2.62
2019-05-07T03:05:57.716Z,2.64
2019-05-07T03:06:57.725Z,2.65
2019-05-07T03:07:57.692Z,2.64
2019-05-07T03:08:57.683Z,2.61
2019-05-07T03:09:57.680Z,2.61
2019-05-07T03:10:57.655Z,2.57
2019-05-07T03:11:57.645Z,2.54
2019-05-07T03:12:57.654Z,2.50
2019-05-07T03:13:57.632Z,2.43
2019-05-07T03:14:57.603Z,2.38
2019-05-07T03:15:57.622Z,2.44
2019-05-07T03:16:57.591Z,2.44
2019-05-07T03:17:57.643Z,2.42
2019-05-07T03:18:57.563Z,2.39
2019-05-07T03:19:57.550Z,2.36
2019-05-07T03:20:57.557Z,2.31
2019-05-07T03:21:57.547Z,2.29
2019-05-07T03:22:57.531Z,2.28
2019-05-07T03:23:57.522Z,2.26
2019-05-07T03:24:57.504Z,2.25
2019-05-07T03:25:57.504Z,2.25
2019-05-07T03:26:57.498Z,2.25
2019-05-07T03:27:57.487Z,2.24
2019-05-07T03:28:57.525Z,2.17
2019-05-07T03:29:57.453Z,2.17
2019-05-07T03:30:57.524Z,2.14
2019-05-07T03:31:57.430Z,2.11
2019-05-07T03:32:57.417Z,2.11
2019-05-07T03:33:57.413Z,2.07
2019-05-07T03:34:58.320Z,2.07
2019-05-07T03:35:57.506Z,2.08
2019-05-07T03:36:57.615Z,2.07
2019-05-07T03:37:57.358Z,2.07
2019-05-07T03:38:57.359Z,2.02
2019-05-07T03:39:57.364Z,1.95
2019-05-07T03:40:57.323Z,1.94
2019-05-07T03:41:57.324Z,1.94
2019-05-07T03:43:01.490Z,1.95
2019-05-07T03:43:58.291Z,1.95
2019-05-07T03:44:57.288Z,1.99
2019-05-07T03:45:57.300Z,2.06
2019-05-07T03:47:02.328Z,2.11
2019-05-07T03:47:58.257Z,2.15
2019-05-07T03:48:57.249Z,2.22
2019-05-07T03:49:57.236Z,2.25
2019-05-07T03:51:06.000Z,2.33
2019-05-07T03:51:57.200Z,2.36
2019-05-07T03:52:57.195Z,2.36
2019-05-07T03:53:57.185Z,2.35
2019-05-07T03:54:57.172Z,2.31
2019-05-07T03:55:57.211Z,2.29
2019-05-07T03:57:02.433Z,2.28
2019-05-07T03:57:58.133Z,2.22
2019-05-07T03:58:57.123Z,2.17
2019-05-07T03:59:57.109Z,2.13
2019-05-07T04:00:57.102Z,2.13
2019-05-07T04:01:57.103Z,2.11
2019-05-07T04:02:57.084Z,2.08
2019-05-07T04:03:57.067Z,2.08
2019-05-07T04:04:57.060Z,2.07
2019-05-07T04:05:57.040Z,2.04
2019-05-07T04:06:57.057Z,2.04
2019-05-07T04:07:57.021Z,2.00
2019-05-07T04:08:57.019Z,1.99
2019-05-07T04:09:57.018Z,2.00
2019-05-07T04:10:56.996Z,2.04
2019-05-07T04:11:57.029Z,2.08
2019-05-07T04:12:57.007Z,2.13
2019-05-07T04:13:56.961Z,2.24
2019-05-07T04:14:56.965Z,2.32
2019-05-07T04:15:56.951Z,2.38
2019-05-07T04:17:13.325Z,2.43
2019-05-07T04:17:57.946Z,2.46
2019-05-07T04:18:56.917Z,2.51
2019-05-07T04:19:56.895Z,2.56
2019-05-07T04:20:56.896Z,2.60
2019-05-07T04:21:56.878Z,2.62
2019-05-07T04:22:56.872Z,2.61
2019-05-07T04:23:56.887Z,2.53
2019-05-07T04:24:56.872Z,2.47
2019-05-07T04:25:56.839Z,2.43
2019-05-07T04:26:56.822Z,2.42
2019-05-07T04:27:56.821Z,2.39
2019-05-07T04:28:56.857Z,2.42
2019-05-07T04:29:56.787Z,2.43
2019-05-07T04:30:56.783Z,2.46
2019-05-07T04:31:56.757Z,2.49
2019-05-07T04:32:56.768Z,2.51
2019-05-07T04:33:56.827Z,2.57
2019-05-07T04:34:56.754Z,2.61
2019-05-07T04:35:56.727Z,2.62
2019-05-07T04:36:56.727Z,2.67
2019-05-07T04:37:56.706Z,2.71
2019-05-07T04:38:56.721Z,2.72
2019-05-07T04:39:56.704Z,2.75
2019-05-07T04:40:56.674Z,2.80
2019-05-07T04:41:56.673Z,2.85
2019-05-07T04:42:56.645Z,2.87
2019-05-07T04:43:56.635Z,2.97
2019-05-07T04:44:56.655Z,3.07
2019-05-07T04:45:56.612Z,3.14
2019-05-07T04:46:56.606Z,3.22
2019-05-07T04:47:56.602Z,3.26
2019-05-07T04:48:56.582Z,3.34
2019-05-07T04:49:56.623Z,3.37
2019-05-07T04:50:56.565Z,3.40
2019-05-07T04:51:56.556Z,3.42
2019-05-07T04:52:56.551Z,3.47
2019-05-07T04:53:56.529Z,3.51
2019-05-07T04:54:56.532Z,3.58
2019-05-07T04:55:56.549Z,3.63
2019-05-07T04:56:56.511Z,3.69
2019-05-07T04:57:56.500Z,3.76
2019-05-07T04:58:56.491Z,3.83
2019-05-07T04:59:56.502Z,3.91
2019-05-07T05:00:56.499Z,4.01
2019-05-07T05:01:56.485Z,4.12
2019-05-07T05:02:56.457Z,4.22
2019-05-07T05:03:56.450Z,4.41
2019-05-07T05:05:04.573Z,4.84
2019-05-07T05:05:56.448Z,5.43
2019-05-07T05:06:56.435Z,5.98
2019-05-07T05:07:56.430Z,6.41
2019-05-07T05:08:56.575Z,6.77
2019-05-07T05:09:56.363Z,6.96
2019-05-07T05:10:56.362Z,7.25
2019-05-07T05:11:56.344Z,7.50
2019-05-07T05:12:56.372Z,7.75
2019-05-07T05:13:56.341Z,7.97
2019-05-07T05:14:56.321Z,8.15
2019-05-07T05:15:56.311Z,8.31
2019-05-07T05:16:56.298Z,8.37
2019-05-07T05:17:56.333Z,8.45
2019-05-07T05:18:56.278Z,8.61
2019-05-07T05:19:56.259Z,8.74
2019-05-07T05:20:56.256Z,8.84
2019-05-07T05:21:56.258Z,8.97
2019-05-07T05:22:56.238Z,9.08
2019-05-07T05:23:56.259Z,9.19
2019-05-07T05:24:56.347Z,9.26
2019-05-07T05:25:56.206Z,9.32
2019-05-07T05:26:56.176Z,9.37
2019-05-07T05:27:56.193Z,9.55
2019-05-07T05:28:56.214Z,9.62
2019-05-07T05:29:56.148Z,9.80
2019-05-07T05:30:56.147Z,10.05
2019-05-07T05:31:56.140Z,10.09
2019-05-07T05:32:56.127Z,10.15
2019-05-07T05:33:56.130Z,10.19
2019-05-07T05:34:56.115Z,10.26
2019-05-07T05:35:56.114Z,10.25
2019-05-07T05:36:56.092Z,10.25
2019-05-07T05:37:56.124Z,10.41
2019-05-07T05:38:56.112Z,10.48
2019-05-07T05:40:05.551Z,10.60
2019-05-07T05:40:57.083Z,10.61
2019-05-07T05:41:56.070Z,10.75
2019-05-07T05:42:56.048Z,10.87
2019-05-07T05:43:56.067Z,10.92
2019-05-07T05:44:56.052Z,10.67
2019-05-07T05:45:56.023Z,10.72
2019-05-07T05:46:56.010Z,10.60
2019-05-07T05:48:04.652Z,10.67
2019-05-07T05:48:57.034Z,10.84
2019-05-07T05:49:55.978Z,10.97
2019-05-07T05:50:55.981Z,11.12
2019-05-07T05:51:55.948Z,11.29
2019-05-07T05:52:55.948Z,11.27
2019-05-07T05:53:55.948Z,11.29
2019-05-07T05:54:55.958Z,11.43
2019-05-07T05:55:55.918Z,11.51
2019-05-07T05:56:55.918Z,11.29
2019-05-07T05:57:55.903Z,11.10
2019-05-07T05:58:55.869Z,11.27
2019-05-07T05:59:55.910Z,11.41
2019-05-07T06:00:55.856Z,11.45
2019-05-07T06:01:55.836Z,11.27
2019-05-07T06:02:55.848Z,10.56
2019-05-07T06:03:55.838Z,10.26
2019-05-07T06:04:55.864Z,10.10
2019-05-07T06:05:55.834Z,9.86
2019-05-07T06:07:07.919Z,9.54
2019-05-07T06:07:56.750Z,9.16
2019-05-07T06:08:55.752Z,9.16
2019-05-07T06:09:55.828Z,9.47
2019-05-07T06:10:55.746Z,10.09
2019-05-07T06:11:55.714Z,10.44
2019-05-07T06:12:55.711Z,10.82
2019-05-07T06:13:55.706Z,10.90
2019-05-07T06:14:55.682Z,11.00
2019-05-07T06:15:55.704Z,11.50
2019-05-07T06:16:55.650Z,11.59
2019-05-07T06:17:55.650Z,11.66
2019-05-07T06:18:55.639Z,11.90
2019-05-07T06:19:55.642Z,12.27
2019-05-07T06:20:55.620Z,12.57
2019-05-07T06:21:55.614Z,12.53
2019-05-07T06:22:55.611Z,12.55
2019-05-07T06:23:55.588Z,12.27
2019-05-07T06:24:56.544Z,12.15
2019-05-07T06:25:55.571Z,12.10
2019-05-07T06:26:55.580Z,12.31
2019-05-07T06:27:55.558Z,12.46
2019-05-07T06:28:55.543Z,12.61
2019-05-07T06:29:55.522Z,12.80
2019-05-07T06:30:55.496Z,13.00
2019-05-07T06:31:55.537Z,12.98
2019-05-07T06:32:55.496Z,13.09
2019-05-07T06:33:55.482Z,12.95
2019-05-07T06:34:55.484Z,12.65
2019-05-07T06:35:55.476Z,12.65
2019-05-07T06:36:55.451Z,12.80
2019-05-07T06:37:55.458Z,13.05
2019-05-07T06:38:55.429Z,13.16
2019-05-07T06:39:55.435Z,13.22
2019-05-07T06:40:55.396Z,13.28
2019-05-07T06:41:55.392Z,13.33
2019-05-07T06:42:55.404Z,13.42
2019-05-07T06:43:55.385Z,13.42
2019-05-07T06:44:55.354Z,12.73
2019-05-07T06:45:55.360Z,12.37
2019-05-07T06:46:55.350Z,12.60
2019-05-07T06:47:55.350Z,13.03
2019-05-07T06:48:55.326Z,13.03
2019-05-07T06:49:55.312Z,13.09
2019-05-07T06:50:55.309Z,13.30
2019-05-07T06:51:55.331Z,13.30
2019-05-07T06:52:55.320Z,13.49
2019-05-07T06:53:55.260Z,13.59
2019-05-07T06:54:55.244Z,13.62
2019-05-07T06:55:55.255Z,13.52
2019-05-07T06:56:55.242Z,13.38
2019-05-07T06:57:55.224Z,13.28
2019-05-07T06:58:55.222Z,13.23
2019-05-07T06:59:55.204Z,13.60
2019-05-07T07:00:55.180Z,13.56
2019-05-07T07:01:55.224Z,13.41
2019-05-07T07:02:55.162Z,12.29
2019-05-07T07:03:55.208Z,11.33
2019-05-07T07:04:55.150Z,11.86
2019-05-07T07:05:55.160Z,11.11
2019-05-07T07:06:55.160Z,10.48
2019-05-07T07:07:55.116Z,11.73
2019-05-07T07:08:55.182Z,11.77
2019-05-07T07:09:56.824Z,10.81
2019-05-07T07:10:55.100Z,10.25
2019-05-07T07:11:55.080Z,9.95
2019-05-07T07:12:55.069Z,9.73
2019-05-07T07:13:55.048Z,9.68
2019-05-07T07:14:57.840Z,11.32
2019-05-07T07:15:55.018Z,12.50
2019-05-07T07:16:56.515Z,12.20
2019-05-07T07:17:55.015Z,11.22
2019-05-07T07:18:55.833Z,10.34
2019-05-07T07:19:54.988Z,10.01
2019-05-07T07:20:54.996Z,9.54
2019-05-07T07:21:55.526Z,9.37
2019-05-07T07:22:54.965Z,9.22
2019-05-07T07:23:54.958Z,9.61
2019-05-07T07:24:54.945Z,10.05
2019-05-07T07:25:54.954Z,9.64
2019-05-07T07:26:54.906Z,9.37
2019-05-07T07:27:54.898Z,9.18
2019-05-07T07:28:54.896Z,10.33
2019-05-07T07:29:54.876Z,11.62
2019-05-07T07:30:54.896Z,12.07
2019-05-07T07:31:54.854Z,12.94
2019-05-07T07:32:54.854Z,13.70
2019-05-07T07:33:54.834Z,13.83
2019-05-07T07:34:54.832Z,14.29
2019-05-07T07:35:54.844Z,13.93
2019-05-07T07:37:05.476Z,13.70
2019-05-07T07:37:55.784Z,13.71
2019-05-07T07:38:54.785Z,13.67
2019-05-07T07:39:54.776Z,13.99
2019-05-07T07:40:54.764Z,14.08
2019-05-07T07:41:54.766Z,14.48
2019-05-07T07:42:54.787Z,13.74
2019-05-07T07:43:54.725Z,12.32
2019-05-07T07:44:54.727Z,11.05
2019-05-07T07:45:54.706Z,10.40
2019-05-07T07:46:54.730Z,10.12
2019-05-07T07:47:54.703Z,10.68
2019-05-07T07:49:06.817Z,10.35
2019-05-07T07:49:55.684Z,10.02
2019-05-07T07:50:54.654Z,10.35
2019-05-07T07:51:54.660Z,11.57
2019-05-07T07:52:54.642Z,12.36
2019-05-07T07:53:54.634Z,11.91
2019-05-07T07:54:54.626Z,11.35
2019-05-07T07:55:54.598Z,12.28
2019-05-07T07:56:56.496Z,12.70
2019-05-07T07:57:54.595Z,12.07
2019-05-07T07:58:54.575Z,12.47
2019-05-07T07:59:54.561Z,13.01
2019-05-07T08:00:54.544Z,13.71
2019-05-07T08:01:54.543Z,14.30
2019-05-07T08:02:54.540Z,13.59
2019-05-07T08:03:54.523Z,13.74
2019-05-07T08:04:54.512Z,13.96
2019-05-07T08:05:54.498Z,13.65
2019-05-07T08:06:54.489Z,12.49
2019-05-07T08:07:54.485Z,11.72
2019-05-07T08:08:54.459Z,11.00
2019-05-07T08:09:54.440Z,10.64
2019-05-07T08:10:54.421Z,11.87
2019-05-07T08:11:54.422Z,13.08
2019-05-07T08:12:54.471Z,13.22
2019-05-07T08:13:54.438Z,13.03
2019-05-07T08:14:54.409Z,11.77
2019-05-07T08:15:54.385Z,10.92
2019-05-07T08:16:54.373Z,10.28
2019-05-07T08:17:54.367Z,10.41
2019-05-07T08:18:54.365Z,11.43
2019-05-07T08:19:54.343Z,11.08
2019-05-07T08:20:54.327Z,10.86
2019-05-07T08:21:54.307Z,11.75
2019-05-07T08:22:54.299Z,12.67
2019-05-07T08:23:54.309Z,13.15
2019-05-07T08:24:54.292Z,13.70
2019-05-07T08:25:54.279Z,14.17
2019-05-07T08:26:54.257Z,14.26
2019-05-07T08:27:54.259Z,14.70
2019-05-07T08:28:54.243Z,15.17
2019-05-07T08:29:54.251Z,14.69
2019-05-07T08:30:54.217Z,14.59
2019-05-07T08:31:54.233Z,14.79
2019-05-07T08:32:54.192Z,15.02
2019-05-07T08:33:54.197Z,15.14
2019-05-07T08:34:54.197Z,15.15
2019-05-07T08:35:54.159Z,15.27
2019-05-07T08:36:54.157Z,14.89
2019-05-07T08:37:54.139Z,14.94
2019-05-07T08:38:54.133Z,14.78
2019-05-07T08:39:54.154Z,14.53
2019-05-07T08:40:54.115Z,14.54
2019-05-07T08:41:54.105Z,14.88
2019-05-07T08:42:54.098Z,14.69
2019-05-07T08:44:07.307Z,14.82
2019-05-07T08:44:55.104Z,15.03
2019-05-07T08:45:54.075Z,15.07
2019-05-07T08:46:54.045Z,15.10
2019-05-07T08:47:54.026Z,15.04
2019-05-07T08:48:54.014Z,14.66
2019-05-07T08:49:54.017Z,14.78
2019-05-07T08:50:54.022Z,14.81
2019-05-07T08:51:53.986Z,14.44
2019-05-07T08:52:53.984Z,14.12
2019-05-07T08:53:53.964Z,14.30
2019-05-07T08:54:53.964Z,14.50
2019-05-07T08:55:53.987Z,14.85
2019-05-07T08:56:53.938Z,14.92
2019-05-07T08:57:53.931Z,15.15
2019-05-07T08:58:53.912Z,15.52
2019-05-07T09:00:00.449Z,15.57
2019-05-07T09:00:54.926Z,15.95
2019-05-07T09:01:53.886Z,15.51
2019-05-07T09:02:53.884Z,15.95
2019-05-07T09:03:53.874Z,15.59
2019-05-07T09:04:53.854Z,15.42
2019-05-07T09:05:53.864Z,15.27
2019-05-07T09:06:53.878Z,15.52
2019-05-07T09:07:53.834Z,15.46
2019-05-07T09:08:53.818Z,15.70
2019-05-07T09:09:53.795Z,15.22
2019-05-07T09:10:53.784Z,15.55
2019-05-07T09:11:53.850Z,15.58
2019-05-07T09:12:53.783Z,15.91
2019-05-07T09:13:53.760Z,16.20
2019-05-07T09:14:53.766Z,16.10
2019-05-07T09:15:53.792Z,15.91
2019-05-07T09:16:53.778Z,15.59
2019-05-07T09:17:53.712Z,15.65
2019-05-07T09:18:53.723Z,15.72
2019-05-07T09:19:54.933Z,15.51
2019-05-07T09:20:53.678Z,14.17
2019-05-07T09:21:53.675Z,13.12
2019-05-07T09:22:53.696Z,13.12
2019-05-07T09:23:53.646Z,13.87
2019-05-07T09:24:53.661Z,14.99
2019-05-07T09:25:53.632Z,15.28
2019-05-07T09:26:53.631Z,15.84
2019-05-07T09:27:53.623Z,16.54
2019-05-07T09:28:53.606Z,17.14
2019-05-07T09:29:53.676Z,17.16
2019-05-07T09:30:53.597Z,17.20
2019-05-07T09:31:53.563Z,16.39
2019-05-07T09:32:53.612Z,16.17
2019-05-07T09:33:53.551Z,16.89
2019-05-07T09:34:53.545Z,17.44
2019-05-07T09:35:53.524Z,18.07
2019-05-07T09:36:53.505Z,17.46
2019-05-07T09:37:53.521Z,16.72
2019-05-07T09:38:59.168Z,17.02
2019-05-07T09:39:54.484Z,16.42
2019-05-07T09:40:55.279Z,16.51
2019-05-07T09:41:53.463Z,15.88
2019-05-07T09:42:53.469Z,15.27
2019-05-07T09:43:53.442Z,15.07
2019-05-07T09:44:53.429Z,14.20
2019-05-07T09:45:53.421Z,15.10
2019-05-07T09:46:53.403Z,15.76
2019-05-07T09:47:53.476Z,15.86
2019-05-07T09:48:53.384Z,16.02
2019-05-07T09:50:04.280Z,16.29
2019-05-07T09:50:54.354Z,16.68
2019-05-07T09:52:02.634Z,16.90
2019-05-07T09:52:53.379Z,17.11
2019-05-07T09:53:53.333Z,17.45
2019-05-07T09:54:53.332Z,17.80
2019-05-07T09:55:53.322Z,18.47
2019-05-07T09:56:53.323Z,18.04
2019-05-07T09:57:53.293Z,16.39
2019-05-07T09:58:53.315Z,15.46
2019-05-07T09:59:53.342Z,16.31
2019-05-07T10:00:53.251Z,16.76
2019-05-07T10:01:53.261Z,15.64
2019-05-07T10:02:53.248Z,14.72
2019-05-07T10:03:53.259Z,15.43
2019-05-07T10:04:53.239Z,16.09
2019-05-07T10:05:53.245Z,16.36
2019-05-07T10:06:53.237Z,15.46
2019-05-07T10:07:53.215Z,16.13
2019-05-07T10:08:53.183Z,16.46
2019-05-07T10:09:53.231Z,16.46
2019-05-07T10:10:53.337Z,16.61
2019-05-07T10:11:53.189Z,17.06
2019-05-07T10:12:53.178Z,17.63
2019-05-07T10:13:53.155Z,18.08
2019-05-07T10:14:53.227Z,18.29
2019-05-07T10:15:53.112Z,17.94
2019-05-07T10:16:53.107Z,17.87
2019-05-07T10:17:53.102Z,17.14
2019-05-07T10:18:53.079Z,15.75
2019-05-07T10:19:53.132Z,14.92
2019-05-07T10:20:53.062Z,14.50
2019-05-07T10:21:53.102Z,14.11
2019-05-07T10:22:53.051Z,14.11
2019-05-07T10:23:53.029Z,14.18
2019-05-07T10:24:53.031Z,14.03
2019-05-07T10:25:53.014Z,13.54
2019-05-07T10:26:53.223Z,13.25
2019-05-07T10:27:53.339Z,13.74
2019-05-07T10:28:52.981Z,14.81
2019-05-07T10:29:53.093Z,15.80
2019-05-07T10:30:53.012Z,16.31
2019-05-07T10:31:52.951Z,16.99
2019-05-07T10:32:52.942Z,17.24
2019-05-07T10:33:52.942Z,16.69
2019-05-07T10:34:52.902Z,15.88
2019-05-07T10:35:53.131Z,15.03
2019-05-07T10:36:52.884Z,14.88
2019-05-07T10:37:53.060Z,14.77
2019-05-07T10:38:52.862Z,15.21
2019-05-07T10:39:52.869Z,16.12
2019-05-07T10:40:52.840Z,17.04
2019-05-07T10:41:52.868Z,17.57
2019-05-07T10:42:52.838Z,17.39
2019-05-07T10:43:52.804Z,17.45
2019-05-07T10:44:52.821Z,17.89
2019-05-07T10:45:52.780Z,17.92
2019-05-07T10:46:52.813Z,18.50
2019-05-07T10:47:52.774Z,18.75
2019-05-07T10:48:52.741Z,18.33
2019-05-07T10:49:52.742Z,18.16
2019-05-07T10:50:52.745Z,18.49
2019-05-07T10:51:52.714Z,18.65
2019-05-07T10:52:52.965Z,18.25
2019-05-07T10:53:52.705Z,18.13
2019-05-07T10:54:59.750Z,17.89
2019-05-07T10:55:53.676Z,18.04
2019-05-07T10:56:52.684Z,18.78
2019-05-07T10:57:52.996Z,18.77
2019-05-07T10:58:52.682Z,19.26
2019-05-07T10:59:52.701Z,17.59
2019-05-07T11:00:52.612Z,16.66
2019-05-07T11:01:52.604Z,16.08
2019-05-07T11:02:52.744Z,15.55
2019-05-07T11:03:52.670Z,16.20
2019-05-07T11:04:53.194Z,15.95
2019-05-07T11:05:52.633Z,15.58
2019-05-07T11:06:52.620Z,15.27
2019-05-07T11:07:53.909Z,14.79
2019-05-07T11:08:52.584Z,14.37
2019-05-07T11:09:52.632Z,14.05
2019-05-07T11:10:52.562Z,13.90
2019-05-07T11:11:52.544Z,13.72
2019-05-07T11:12:52.551Z,13.62
2019-05-07T11:13:55.826Z,13.56
2019-05-07T11:14:52.494Z,13.33
2019-05-07T11:15:52.505Z,13.13
2019-05-07T11:16:52.492Z,13.19
2019-05-07T11:17:52.484Z,13.13
2019-05-07T11:18:52.454Z,13.01
2019-05-07T11:19:52.464Z,12.75
2019-05-07T11:20:53.461Z,12.58
2019-05-07T11:21:52.444Z,12.49
2019-05-07T11:22:52.561Z,12.45
2019-05-07T11:23:52.434Z,12.36
2019-05-07T11:24:52.392Z,12.29
2019-05-07T11:25:52.771Z,12.37
2019-05-07T11:26:53.115Z,12.54
2019-05-07T11:27:52.550Z,12.55
2019-05-07T11:28:52.332Z,12.49
2019-05-07T11:29:52.323Z,12.62
2019-05-07T11:30:52.330Z,12.80
2019-05-07T11:31:52.570Z,13.03
2019-05-07T11:32:52.468Z,13.04
2019-05-07T11:33:52.270Z,13.03
2019-05-07T11:34:52.873Z,13.20
2019-05-07T11:35:52.893Z,13.35
2019-05-07T11:36:52.476Z,13.81
2019-05-07T11:37:52.300Z,15.06
2019-05-07T11:38:52.689Z,15.15
2019-05-07T11:39:52.393Z,14.92
2019-05-07T11:40:52.247Z,15.88
2019-05-07T11:41:52.177Z,15.68
2019-05-07T11:42:52.279Z,15.44
2019-05-07T11:43:54.009Z,15.46
2019-05-07T11:44:54.799Z,15.62
2019-05-07T11:45:54.162Z,15.90
2019-05-07T11:46:52.625Z,15.68
2019-05-07T11:47:52.137Z,15.80
2019-05-07T11:48:52.132Z,16.10
2019-05-07T11:49:52.483Z,16.04
2019-05-07T11:51:01.447Z,15.90
2019-05-07T11:51:53.099Z,16.33
2019-05-07T11:52:52.129Z,17.64
2019-05-07T11:53:52.426Z,18.35
2019-05-07T11:54:52.497Z,18.53
2019-05-07T11:55:52.434Z,18.49
2019-05-07T11:56:55.251Z,18.15
2019-05-07T11:57:52.036Z,17.98
2019-05-07T11:58:54.748Z,18.08
2019-05-07T11:59:54.372Z,17.57
2019-05-07T12:00:51.999Z,17.49
2019-05-07T12:01:52.730Z,17.27
2019-05-07T12:02:52.053Z,16.89
2019-05-07T12:03:52.073Z,16.96
2019-05-07T12:04:52.680Z,16.81
2019-05-07T12:05:52.684Z,17.33
2019-05-07T12:06:52.152Z,17.36
2019-05-07T12:07:51.906Z,17.24
2019-05-07T12:08:52.262Z,17.29
2019-05-07T12:09:52.607Z,16.84
2019-05-07T12:10:51.927Z,16.61
2019-05-07T12:11:52.132Z,16.43
2019-05-07T12:12:52.170Z,16.49
2019-05-07T12:13:52.357Z,16.10
2019-05-07T12:14:51.974Z,15.75
2019-05-07T12:15:52.338Z,15.49
2019-05-07T12:16:51.807Z,15.31
2019-05-07T12:17:52.234Z,16.04
2019-05-07T12:18:52.434Z,17.33
2019-05-07T12:19:52.673Z,18.26
2019-05-07T12:20:53.831Z,18.38
2019-05-07T12:21:52.666Z,17.04
2019-05-07T12:22:52.173Z,16.32
2019-05-07T12:23:52.497Z,16.02
2019-05-07T12:24:52.143Z,15.98
2019-05-07T12:25:52.872Z,16.79
2019-05-07T12:26:52.218Z,17.82
2019-05-07T12:27:51.695Z,18.95
2019-05-07T12:28:52.212Z,19.51
2019-05-07T12:29:52.873Z,19.74
2019-05-07T12:30:51.829Z,19.81
2019-05-07T12:31:52.362Z,20.18
2019-05-07T12:32:52.021Z,20.67
2019-05-07T12:33:52.175Z,19.40
2019-05-07T12:34:52.775Z,18.73
2019-05-07T12:35:52.465Z,18.01
2019-05-07T12:36:52.453Z,19.00
2019-05-07T12:37:51.597Z,19.81
2019-05-07T12:38:53.298Z,19.91
2019-05-07T12:39:52.764Z,19.29
2019-05-07T12:40:52.369Z,19.47
2019-05-07T12:41:52.475Z,19.96
2019-05-07T12:42:52.392Z,20.24
2019-05-07T12:43:51.992Z,19.30
2019-05-07T12:44:51.813Z,18.05
2019-05-07T12:45:52.522Z,18.47
2019-05-07T12:46:52.431Z,19.07
2019-05-07T12:47:52.966Z,18.93
2019-05-07T12:48:52.344Z,19.02
2019-05-07T12:49:51.501Z,19.09
2019-05-07T12:50:52.252Z,19.41
2019-05-07T12:51:51.446Z,19.81
2019-05-07T12:52:52.970Z,20.00
2019-05-07T12:53:52.480Z,19.45
2019-05-07T12:54:52.449Z,19.27
2019-05-07T12:55:51.840Z,19.15
2019-05-07T12:56:51.985Z,18.23
2019-05-07T12:57:51.933Z,17.15
2019-05-07T12:58:51.840Z,16.46
2019-05-07T12:59:52.923Z,16.68
2019-05-07T13:00:52.347Z,17.86
2019-05-07T13:01:52.112Z,18.50
2019-05-07T13:02:52.117Z,16.99
2019-05-07T13:03:51.928Z,15.73